sensor_id;sensor_type;location;lat;lon;timestamp;temperature;humidity
38726;DHT22;24474;48.906;8.808;2022-11-24T00:00:52;8.30;99.90
38726;DHT22;24474;48.906;8.808;2022-11-24T00:03:19;8.30;99.90
38726;DHT22;24474;48.906;8.808;2022-11-24T00:05:45;8.30;99.90
38726;DHT22;24474;48.906;8.808;2022-11-24T00:08:11;8.30;99.90
38726;DHT22;24474;48.906;8.808;2022-11-24T00:10:37;8.30;99.90
38726;DHT22;24474;48.906;8.808;2022-11-24T00:13:02;8.40;99.90
38726;DHT22;24474;48.906;8.808;2022-11-24T00:15:28;8.30;99.90
38726;DHT22;24474;48.906;8.808;2022-11-24T00:17:53;8.30;99.90
38726;DHT22;24474;48.906;8.808;2022-11-24T00:20:19;8.30;99.90
38726;DHT22;24474;48.906;8.808;2022-11-24T00:22:46;8.40;99.90
38726;DHT22;24474;48.906;8.808;2022-11-24T00:25:11;8.40;99.90
38726;DHT22;24474;48.906;8.808;2022-11-24T00:27:37;8.40;99.90
38726;DHT22;24474;48.906;8.808;2022-11-24T00:30:04;8.40;99.90
38726;DHT22;24474;48.906;8.808;2022-11-24T00:32:31;8.40;99.90
38726;DHT22;24474;48.906;8.808;2022-11-24T00:34:57;8.30;99.90
38726;DHT22;24474;48.906;8.808;2022-11-24T00:37:23;8.30;99.90
38726;DHT22;24474;48.906;8.808;2022-11-24T00:39:48;8.30;99.90
38726;DHT22;24474;48.906;8.808;2022-11-24T00:42:14;8.40;99.90
38726;DHT22;24474;48.906;8.808;2022-11-24T00:44:40;8.40;99.90
38726;DHT22;24474;48.906;8.808;2022-11-24T00:47:05;8.40;99.90
38726;DHT22;24474;48.906;8.808;2022-11-24T00:49:32;8.30;99.90
38726;DHT22;24474;48.906;8.808;2022-11-24T00:51:59;8.40;99.90
38726;DHT22;24474;48.906;8.808;2022-11-24T00:54:25;8.40;99.90
38726;DHT22;24474;48.906;8.808;2022-11-24T00:56:51;8.40;99.90
38726;DHT22;24474;48.906;8.808;2022-11-24T00:59:17;8.40;99.90
38726;DHT22;24474;48.906;8.808;2022-11-24T01:01:45;8.50;99.90
38726;DHT22;24474;48.906;8.808;2022-11-24T01:04:11;8.40;99.90
38726;DHT22;24474;48.906;8.808;2022-11-24T01:06:37;8.50;99.90
38726;DHT22;24474;48.906;8.808;2022-11-24T01:09:04;8.50;99.90
38726;DHT22;24474;48.906;8.808;2022-11-24T01:11:43;8.50;99.90
38726;DHT22;24474;48.906;8.808;2022-11-24T01:14:28;8.50;99.90
38726;DHT22;24474;48.906;8.808;2022-11-24T01:16:54;8.50;99.90
38726;DHT22;24474;48.906;8.808;2022-11-24T01:19:22;8.60;99.90
38726;DHT22;24474;48.906;8.808;2022-11-24T01:21:49;8.50;99.90
38726;DHT22;24474;48.906;8.808;2022-11-24T01:24:16;8.60;99.90
38726;DHT22;24474;48.906;8.808;2022-11-24T01:26:42;8.60;99.90
38726;DHT22;24474;48.906;8.808;2022-11-24T01:29:09;8.70;99.90
38726;DHT22;24474;48.906;8.808;2022-11-24T01:31:36;8.60;99.90
38726;DHT22;24474;48.906;8.808;2022-11-24T01:34:03;8.70;99.90
38726;DHT22;24474;48.906;8.808;2022-11-24T01:36:32;8.60;99.90
38726;DHT22;24474;48.906;8.808;2022-11-24T01:38:59;8.70;99.90
38726;DHT22;24474;48.906;8.808;2022-11-24T01:41:25;8.70;99.90
38726;DHT22;24474;48.906;8.808;2022-11-24T01:43:55;8.70;99.90
38726;DHT22;24474;48.906;8.808;2022-11-24T01:52:20;8.70;99.90
38726;DHT22;24474;48.906;8.808;2022-11-24T01:55:01;8.70;99.90
38726;DHT22;24474;48.906;8.808;2022-11-24T01:57:32;8.70;99.90
38726;DHT22;24474;48.906;8.808;2022-11-24T02:00:06;8.70;99.90
38726;DHT22;24474;48.906;8.808;2022-11-24T02:02:32;8.60;99.90
38726;DHT22;24474;48.906;8.808;2022-11-24T02:05:23;8.70;99.90
38726;DHT22;24474;48.906;8.808;2022-11-24T02:07:53;8.70;99.90
38726;DHT22;24474;48.906;8.808;2022-11-24T02:10:22;8.70;99.90
38726;DHT22;24474;48.906;8.808;2022-11-24T02:12:50;8.70;99.90
38726;DHT22;24474;48.906;8.808;2022-11-24T02:15:18;8.70;99.90
38726;DHT22;24474;48.906;8.808;2022-11-24T02:17:44;8.80;99.90
38726;DHT22;24474;48.906;8.808;2022-11-24T02:20:12;8.70;99.90
38726;DHT22;24474;48.906;8.808;2022-11-24T02:26:38;8.70;99.90
38726;DHT22;24474;48.906;8.808;2022-11-24T02:28:31;8.80;99.90
38726;DHT22;24474;48.906;8.808;2022-11-24T02:30:58;8.80;99.90
38726;DHT22;24474;48.906;8.808;2022-11-24T02:33:26;8.80;99.90
38726;DHT22;24474;48.906;8.808;2022-11-24T02:35:54;8.70;99.90
38726;DHT22;24474;48.906;8.808;2022-11-24T02:38:28;8.70;99.90
38726;DHT22;24474;48.906;8.808;2022-11-24T02:40:54;8.70;99.90
38726;DHT22;24474;48.906;8.808;2022-11-24T02:43:22;8.70;99.90
38726;DHT22;24474;48.906;8.808;2022-11-24T02:45:49;8.70;99.90
38726;DHT22;24474;48.906;8.808;2022-11-24T02:48:17;8.70;99.90
38726;DHT22;24474;48.906;8.808;2022-11-24T02:50:43;8.70;99.90
38726;DHT22;24474;48.906;8.808;2022-11-24T02:53:09;8.70;99.90
38726;DHT22;24474;48.906;8.808;2022-11-24T02:55:36;8.70;99.90
38726;DHT22;24474;48.906;8.808;2022-11-24T02:58:03;8.60;99.90
38726;DHT22;24474;48.906;8.808;2022-11-24T03:00:30;8.60;99.90
38726;DHT22;24474;48.906;8.808;2022-11-24T03:02:57;8.60;99.90
38726;DHT22;24474;48.906;8.808;2022-11-24T03:05:22;8.60;99.90
38726;DHT22;24474;48.906;8.808;2022-11-24T03:07:48;8.50;99.90
38726;DHT22;24474;48.906;8.808;2022-11-24T03:10:14;8.50;99.90
38726;DHT22;24474;48.906;8.808;2022-11-24T03:12:40;8.50;99.90
38726;DHT22;24474;48.906;8.808;2022-11-24T03:15:06;8.50;99.90
38726;DHT22;24474;48.906;8.808;2022-11-24T03:17:32;8.40;99.90
38726;DHT22;24474;48.906;8.808;2022-11-24T03:19:57;8.40;99.90
38726;DHT22;24474;48.906;8.808;2022-11-24T03:22:25;8.40;99.90
38726;DHT22;24474;48.906;8.808;2022-11-24T03:24:50;8.40;99.90
38726;DHT22;24474;48.906;8.808;2022-11-24T03:27:16;8.40;99.90
38726;DHT22;24474;48.906;8.808;2022-11-24T03:29:43;8.40;99.90
38726;DHT22;24474;48.906;8.808;2022-11-24T03:32:12;8.50;99.90
38726;DHT22;24474;48.906;8.808;2022-11-24T03:34:38;8.40;99.90
38726;DHT22;24474;48.906;8.808;2022-11-24T03:37:05;8.40;99.90
38726;DHT22;24474;48.906;8.808;2022-11-24T03:39:31;8.40;99.90
38726;DHT22;24474;48.906;8.808;2022-11-24T03:41:58;8.30;99.90
38726;DHT22;24474;48.906;8.808;2022-11-24T03:44:24;8.30;99.90
38726;DHT22;24474;48.906;8.808;2022-11-24T03:46:49;8.30;99.90
38726;DHT22;24474;48.906;8.808;2022-11-24T03:49:17;8.20;99.90
38726;DHT22;24474;48.906;8.808;2022-11-24T03:51:42;8.30;99.90
38726;DHT22;24474;48.906;8.808;2022-11-24T03:54:09;8.30;99.90
38726;DHT22;24474;48.906;8.808;2022-11-24T03:56:36;8.30;99.90
38726;DHT22;24474;48.906;8.808;2022-11-24T03:59:02;8.30;99.90
38726;DHT22;24474;48.906;8.808;2022-11-24T04:01:27;8.30;99.90
38726;DHT22;24474;48.906;8.808;2022-11-24T04:03:53;8.30;99.90
38726;DHT22;24474;48.906;8.808;2022-11-24T04:06:20;8.30;99.90
38726;DHT22;24474;48.906;8.808;2022-11-24T04:08:47;8.20;99.90
38726;DHT22;24474;48.906;8.808;2022-11-24T04:11:13;8.30;99.90
38726;DHT22;24474;48.906;8.808;2022-11-24T04:14:01;8.20;99.90
38726;DHT22;24474;48.906;8.808;2022-11-24T04:16:28;8.20;99.90
38726;DHT22;24474;48.906;8.808;2022-11-24T04:18:54;8.20;99.90
38726;DHT22;24474;48.906;8.808;2022-11-24T04:21:19;8.20;99.90
38726;DHT22;24474;48.906;8.808;2022-11-24T04:23:46;8.20;99.90
38726;DHT22;24474;48.906;8.808;2022-11-24T04:26:12;8.20;99.90
38726;DHT22;24474;48.906;8.808;2022-11-24T04:28:38;8.10;99.90
38726;DHT22;24474;48.906;8.808;2022-11-24T04:31:05;8.20;99.90
38726;DHT22;24474;48.906;8.808;2022-11-24T04:33:31;8.20;99.90
38726;DHT22;24474;48.906;8.808;2022-11-24T04:35:57;8.20;99.90
38726;DHT22;24474;48.906;8.808;2022-11-24T04:38:22;8.20;99.90
38726;DHT22;24474;48.906;8.808;2022-11-24T04:40:49;8.20;99.90
38726;DHT22;24474;48.906;8.808;2022-11-24T04:43:15;8.10;99.90
38726;DHT22;24474;48.906;8.808;2022-11-24T04:45:43;8.10;99.90
38726;DHT22;24474;48.906;8.808;2022-11-24T04:48:09;8.10;99.90
38726;DHT22;24474;48.906;8.808;2022-11-24T04:50:36;8.10;99.90
38726;DHT22;24474;48.906;8.808;2022-11-24T04:53:04;8.10;99.90
38726;DHT22;24474;48.906;8.808;2022-11-24T04:55:30;8.10;99.90
38726;DHT22;24474;48.906;8.808;2022-11-24T04:57:58;8.00;99.90
38726;DHT22;24474;48.906;8.808;2022-11-24T05:00:25;8.10;99.90
38726;DHT22;24474;48.906;8.808;2022-11-24T05:02:51;8.20;99.90
38726;DHT22;24474;48.906;8.808;2022-11-24T05:05:17;8.10;99.90
38726;DHT22;24474;48.906;8.808;2022-11-24T05:07:42;8.20;99.90
38726;DHT22;24474;48.906;8.808;2022-11-24T05:10:09;8.20;99.90
38726;DHT22;24474;48.906;8.808;2022-11-24T05:12:56;8.10;99.90
38726;DHT22;24474;48.906;8.808;2022-11-24T05:15:22;8.10;99.90
38726;DHT22;24474;48.906;8.808;2022-11-24T05:17:48;8.20;99.90
38726;DHT22;24474;48.906;8.808;2022-11-24T05:20:13;8.20;99.90
38726;DHT22;24474;48.906;8.808;2022-11-24T05:22:39;8.20;99.90
38726;DHT22;24474;48.906;8.808;2022-11-24T05:25:05;8.20;99.90
38726;DHT22;24474;48.906;8.808;2022-11-24T05:27:31;8.10;99.90
38726;DHT22;24474;48.906;8.808;2022-11-24T05:29:56;8.10;99.90
38726;DHT22;24474;48.906;8.808;2022-11-24T05:32:22;8.10;99.90
38726;DHT22;24474;48.906;8.808;2022-11-24T05:34:49;8.10;99.90
38726;DHT22;24474;48.906;8.808;2022-11-24T05:37:14;8.20;99.90
38726;DHT22;24474;48.906;8.808;2022-11-24T05:39:40;8.00;99.90
38726;DHT22;24474;48.906;8.808;2022-11-24T05:42:07;8.00;99.90
38726;DHT22;24474;48.906;8.808;2022-11-24T05:44:52;8.00;99.90
38726;DHT22;24474;48.906;8.808;2022-11-24T05:47:20;8.00;99.90
38726;DHT22;24474;48.906;8.808;2022-11-24T05:49:47;8.00;99.90
38726;DHT22;24474;48.906;8.808;2022-11-24T05:52:14;7.90;99.90
38726;DHT22;24474;48.906;8.808;2022-11-24T05:54:42;8.00;99.90
38726;DHT22;24474;48.906;8.808;2022-11-24T05:57:08;8.10;99.90
38726;DHT22;24474;48.906;8.808;2022-11-24T05:59:34;8.00;99.90
38726;DHT22;24474;48.906;8.808;2022-11-24T06:01:59;7.90;99.90
38726;DHT22;24474;48.906;8.808;2022-11-24T06:04:28;7.90;99.90
38726;DHT22;24474;48.906;8.808;2022-11-24T06:06:54;8.00;99.90
38726;DHT22;24474;48.906;8.808;2022-11-24T06:09:19;7.90;99.90
38726;DHT22;24474;48.906;8.808;2022-11-24T06:11:46;7.90;99.90
38726;DHT22;24474;48.906;8.808;2022-11-24T06:14:12;7.90;99.90
38726;DHT22;24474;48.906;8.808;2022-11-24T06:16:40;7.90;99.90
38726;DHT22;24474;48.906;8.808;2022-11-24T06:19:08;7.90;99.90
38726;DHT22;24474;48.906;8.808;2022-11-24T06:21:36;7.90;99.90
38726;DHT22;24474;48.906;8.808;2022-11-24T06:24:04;7.90;99.90
38726;DHT22;24474;48.906;8.808;2022-11-24T06:26:31;7.90;99.90
38726;DHT22;24474;48.906;8.808;2022-11-24T06:28:56;7.90;99.90
38726;DHT22;24474;48.906;8.808;2022-11-24T06:31:22;7.90;99.90
38726;DHT22;24474;48.906;8.808;2022-11-24T06:33:48;7.90;99.90
38726;DHT22;24474;48.906;8.808;2022-11-24T06:36:14;7.90;99.90
38726;DHT22;24474;48.906;8.808;2022-11-24T06:38:42;7.90;99.90
38726;DHT22;24474;48.906;8.808;2022-11-24T06:41:14;7.90;99.90
38726;DHT22;24474;48.906;8.808;2022-11-24T06:43:41;7.90;99.90
38726;DHT22;24474;48.906;8.808;2022-11-24T06:46:07;7.90;99.90
38726;DHT22;24474;48.906;8.808;2022-11-24T06:48:33;7.90;99.90
38726;DHT22;24474;48.906;8.808;2022-11-24T06:51:04;7.90;99.90
38726;DHT22;24474;48.906;8.808;2022-11-24T06:53:34;7.90;99.90
38726;DHT22;24474;48.906;8.808;2022-11-24T06:56:09;7.90;99.90
38726;DHT22;24474;48.906;8.808;2022-11-24T06:58:43;7.90;99.90
38726;DHT22;24474;48.906;8.808;2022-11-24T07:01:24;8.00;99.90
38726;DHT22;24474;48.906;8.808;2022-11-24T07:03:53;7.90;99.90
38726;DHT22;24474;48.906;8.808;2022-11-24T07:06:22;7.90;99.90
38726;DHT22;24474;48.906;8.808;2022-11-24T07:08:48;7.90;99.90
38726;DHT22;24474;48.906;8.808;2022-11-24T07:11:18;7.90;99.90
38726;DHT22;24474;48.906;8.808;2022-11-24T07:13:44;7.90;99.90
38726;DHT22;24474;48.906;8.808;2022-11-24T07:16:22;8.00;99.90
38726;DHT22;24474;48.906;8.808;2022-11-24T07:18:49;8.00;99.90
38726;DHT22;24474;48.906;8.808;2022-11-24T07:21:16;8.10;99.90
38726;DHT22;24474;48.906;8.808;2022-11-24T07:23:42;8.10;99.90
38726;DHT22;24474;48.906;8.808;2022-11-24T07:26:10;8.10;99.90
38726;DHT22;24474;48.906;8.808;2022-11-24T07:28:36;8.00;99.90
38726;DHT22;24474;48.906;8.808;2022-11-24T07:31:10;8.00;99.90
38726;DHT22;24474;48.906;8.808;2022-11-24T07:33:37;7.90;99.90
38726;DHT22;24474;48.906;8.808;2022-11-24T07:36:04;7.90;99.90
38726;DHT22;24474;48.906;8.808;2022-11-24T07:38:31;7.80;99.90
38726;DHT22;24474;48.906;8.808;2022-11-24T07:41:05;7.70;99.90
38726;DHT22;24474;48.906;8.808;2022-11-24T07:43:32;7.70;99.90
38726;DHT22;24474;48.906;8.808;2022-11-24T07:45:58;7.70;99.90
38726;DHT22;24474;48.906;8.808;2022-11-24T07:48:24;7.60;99.90
38726;DHT22;24474;48.906;8.808;2022-11-24T07:50:50;7.70;99.90
38726;DHT22;24474;48.906;8.808;2022-11-24T07:53:16;7.60;99.90
38726;DHT22;24474;48.906;8.808;2022-11-24T07:55:42;7.60;99.90
38726;DHT22;24474;48.906;8.808;2022-11-24T07:58:08;7.60;99.90
38726;DHT22;24474;48.906;8.808;2022-11-24T08:00:34;7.60;99.90
38726;DHT22;24474;48.906;8.808;2022-11-24T08:02:59;7.60;99.90
38726;DHT22;24474;48.906;8.808;2022-11-24T08:05:25;7.60;99.90
38726;DHT22;24474;48.906;8.808;2022-11-24T08:07:50;7.60;99.90
38726;DHT22;24474;48.906;8.808;2022-11-24T08:10:16;7.60;99.90
38726;DHT22;24474;48.906;8.808;2022-11-24T08:12:42;7.60;99.90
38726;DHT22;24474;48.906;8.808;2022-11-24T08:15:08;7.50;99.90
38726;DHT22;24474;48.906;8.808;2022-11-24T08:17:34;7.60;99.90
38726;DHT22;24474;48.906;8.808;2022-11-24T08:20:00;7.60;99.90
38726;DHT22;24474;48.906;8.808;2022-11-24T08:22:26;7.50;99.90
38726;DHT22;24474;48.906;8.808;2022-11-24T08:24:51;7.50;99.90
38726;DHT22;24474;48.906;8.808;2022-11-24T08:27:18;7.50;99.90
38726;DHT22;24474;48.906;8.808;2022-11-24T08:29:44;7.60;99.90
38726;DHT22;24474;48.906;8.808;2022-11-24T08:32:10;7.50;99.90
38726;DHT22;24474;48.906;8.808;2022-11-24T08:34:37;7.50;99.90
38726;DHT22;24474;48.906;8.808;2022-11-24T08:37:03;7.50;99.90
38726;DHT22;24474;48.906;8.808;2022-11-24T08:39:30;7.50;99.90
38726;DHT22;24474;48.906;8.808;2022-11-24T08:41:56;7.50;99.90
38726;DHT22;24474;48.906;8.808;2022-11-24T08:44:21;7.50;99.90
38726;DHT22;24474;48.906;8.808;2022-11-24T08:46:52;7.60;99.90
38726;DHT22;24474;48.906;8.808;2022-11-24T08:49:17;7.70;99.90
38726;DHT22;24474;48.906;8.808;2022-11-24T08:51:43;7.80;99.90
38726;DHT22;24474;48.906;8.808;2022-11-24T08:54:11;7.70;99.90
38726;DHT22;24474;48.906;8.808;2022-11-24T08:56:39;7.70;99.90
38726;DHT22;24474;48.906;8.808;2022-11-24T08:59:05;7.90;99.90
38726;DHT22;24474;48.906;8.808;2022-11-24T09:01:31;7.80;99.90
38726;DHT22;24474;48.906;8.808;2022-11-24T09:03:57;7.80;99.90
38726;DHT22;24474;48.906;8.808;2022-11-24T09:06:26;7.80;99.90
38726;DHT22;24474;48.906;8.808;2022-11-24T09:08:54;7.90;99.90
38726;DHT22;24474;48.906;8.808;2022-11-24T09:11:20;7.90;99.90
38726;DHT22;24474;48.906;8.808;2022-11-24T09:13:46;7.90;99.90
38726;DHT22;24474;48.906;8.808;2022-11-24T09:16:22;8.00;99.90
38726;DHT22;24474;48.906;8.808;2022-11-24T09:18:54;8.00;99.90
38726;DHT22;24474;48.906;8.808;2022-11-24T09:21:21;8.00;99.90
38726;DHT22;24474;48.906;8.808;2022-11-24T09:23:49;8.00;99.90
38726;DHT22;24474;48.906;8.808;2022-11-24T09:26:20;8.00;99.90
38726;DHT22;24474;48.906;8.808;2022-11-24T09:28:57;8.00;99.90
38726;DHT22;24474;48.906;8.808;2022-11-24T09:31:25;8.10;99.90
38726;DHT22;24474;48.906;8.808;2022-11-24T09:33:51;8.00;99.90
38726;DHT22;24474;48.906;8.808;2022-11-24T09:36:17;8.00;99.90
38726;DHT22;24474;48.906;8.808;2022-11-24T09:38:44;8.10;99.90
38726;DHT22;24474;48.906;8.808;2022-11-24T09:41:38;8.10;99.90
38726;DHT22;24474;48.906;8.808;2022-11-24T09:47:18;8.20;99.90
38726;DHT22;24474;48.906;8.808;2022-11-24T09:50:14;8.20;99.90
38726;DHT22;24474;48.906;8.808;2022-11-24T09:52:50;8.20;99.90
38726;DHT22;24474;48.906;8.808;2022-11-24T09:55:28;8.30;99.90
38726;DHT22;24474;48.906;8.808;2022-11-24T10:00:41;8.30;99.90
38726;DHT22;24474;48.906;8.808;2022-11-24T10:03:30;8.40;99.90
38726;DHT22;24474;48.906;8.808;2022-11-24T10:05:57;8.40;99.90
38726;DHT22;24474;48.906;8.808;2022-11-24T10:08:32;8.40;99.90
38726;DHT22;24474;48.906;8.808;2022-11-24T10:11:04;8.40;99.90
38726;DHT22;24474;48.906;8.808;2022-11-24T10:27:17;8.60;99.90
38726;DHT22;24474;48.906;8.808;2022-11-24T10:29:44;8.60;99.90
38726;DHT22;24474;48.906;8.808;2022-11-24T10:32:26;8.70;99.90
38726;DHT22;24474;48.906;8.808;2022-11-24T10:34:58;8.70;99.90
38726;DHT22;24474;48.906;8.808;2022-11-24T10:37:32;8.70;99.90
38726;DHT22;24474;48.906;8.808;2022-11-24T10:40:23;8.70;99.90
38726;DHT22;24474;48.906;8.808;2022-11-24T10:42:49;8.70;99.90
38726;DHT22;24474;48.906;8.808;2022-11-24T10:45:20;8.70;99.90
38726;DHT22;24474;48.906;8.808;2022-11-24T10:47:47;8.70;99.90
38726;DHT22;24474;48.906;8.808;2022-11-24T10:50:29;8.80;99.90
38726;DHT22;24474;48.906;8.808;2022-11-24T10:58:32;9.00;99.90
38726;DHT22;24474;48.906;8.808;2022-11-24T11:01:01;9.00;99.90
38726;DHT22;24474;48.906;8.808;2022-11-24T11:03:57;9.00;99.90
38726;DHT22;24474;48.906;8.808;2022-11-24T11:06:29;9.10;99.90
38726;DHT22;24474;48.906;8.808;2022-11-24T11:09:16;9.10;99.90
38726;DHT22;24474;48.906;8.808;2022-11-24T11:11:44;9.10;99.90
38726;DHT22;24474;48.906;8.808;2022-11-24T11:14:33;9.20;99.90
38726;DHT22;24474;48.906;8.808;2022-11-24T11:20:31;9.10;99.90
38726;DHT22;24474;48.906;8.808;2022-11-24T11:22:59;9.10;99.90
38726;DHT22;24474;48.906;8.808;2022-11-24T11:25:32;9.20;99.90
38726;DHT22;24474;48.906;8.808;2022-11-24T11:31:02;9.30;99.90
38726;DHT22;24474;48.906;8.808;2022-11-24T11:33:32;9.30;99.90
38726;DHT22;24474;48.906;8.808;2022-11-24T11:35:59;9.40;99.90
38726;DHT22;24474;48.906;8.808;2022-11-24T11:38:32;9.50;99.90
38726;DHT22;24474;48.906;8.808;2022-11-24T11:41:01;9.60;99.90
38726;DHT22;24474;48.906;8.808;2022-11-24T11:43:33;9.60;99.90
38726;DHT22;24474;48.906;8.808;2022-11-24T11:46:12;9.70;99.90
38726;DHT22;24474;48.906;8.808;2022-11-24T11:48:40;9.70;99.90
38726;DHT22;24474;48.906;8.808;2022-11-24T11:54:17;9.80;99.90
38726;DHT22;24474;48.906;8.808;2022-11-24T11:57:07;9.80;99.90
38726;DHT22;24474;48.906;8.808;2022-11-24T12:02:45;9.70;99.90
38726;DHT22;24474;48.906;8.808;2022-11-24T12:05:29;9.70;99.90
38726;DHT22;24474;48.906;8.808;2022-11-24T12:14:25;9.80;99.90
38726;DHT22;24474;48.906;8.808;2022-11-24T12:22:46;9.80;99.90
38726;DHT22;24474;48.906;8.808;2022-11-24T12:25:25;9.80;99.90
38726;DHT22;24474;48.906;8.808;2022-11-24T12:28:05;9.80;99.90
38726;DHT22;24474;48.906;8.808;2022-11-24T12:31:03;9.80;99.90
38726;DHT22;24474;48.906;8.808;2022-11-24T12:33:47;9.80;99.90
38726;DHT22;24474;48.906;8.808;2022-11-24T12:40:08;10.10;99.90
38726;DHT22;24474;48.906;8.808;2022-11-24T12:45:11;10.20;99.90
38726;DHT22;24474;48.906;8.808;2022-11-24T12:50:28;10.20;99.90
38726;DHT22;24474;48.906;8.808;2022-11-24T12:52:58;10.20;99.90
38726;DHT22;24474;48.906;8.808;2022-11-24T12:55:25;10.20;99.90
38726;DHT22;24474;48.906;8.808;2022-11-24T13:00:37;10.20;99.90
38726;DHT22;24474;48.906;8.808;2022-11-24T13:05:58;10.30;99.90
38726;DHT22;24474;48.906;8.808;2022-11-24T13:08:27;10.30;99.90
38726;DHT22;24474;48.906;8.808;2022-11-24T13:14:16;10.30;99.90
38726;DHT22;24474;48.906;8.808;2022-11-24T13:16:54;10.30;99.90
38726;DHT22;24474;48.906;8.808;2022-11-24T13:19:24;10.30;99.90
38726;DHT22;24474;48.906;8.808;2022-11-24T13:24:33;10.30;99.90
38726;DHT22;24474;48.906;8.808;2022-11-24T13:29:43;10.30;99.90
38726;DHT22;24474;48.906;8.808;2022-11-24T13:40:26;10.40;99.90
38726;DHT22;24474;48.906;8.808;2022-11-24T13:55:58;10.20;99.90
38726;DHT22;24474;48.906;8.808;2022-11-24T13:58:41;10.20;99.90
38726;DHT22;24474;48.906;8.808;2022-11-24T14:01:27;10.20;99.90
38726;DHT22;24474;48.906;8.808;2022-11-24T14:06:59;10.10;99.90
38726;DHT22;24474;48.906;8.808;2022-11-24T14:09:45;10.10;99.90
38726;DHT22;24474;48.906;8.808;2022-11-24T14:12:20;10.10;99.90
38726;DHT22;24474;48.906;8.808;2022-11-24T14:14:53;10.00;99.90
38726;DHT22;24474;48.906;8.808;2022-11-24T14:17:37;10.00;99.90
38726;DHT22;24474;48.906;8.808;2022-11-24T14:20:17;10.00;99.90
38726;DHT22;24474;48.906;8.808;2022-11-24T14:22:48;10.00;99.90
38726;DHT22;24474;48.906;8.808;2022-11-24T14:25:29;10.00;99.90
38726;DHT22;24474;48.906;8.808;2022-11-24T14:27:56;10.00;99.90
38726;DHT22;24474;48.906;8.808;2022-11-24T14:30:25;10.00;99.90
38726;DHT22;24474;48.906;8.808;2022-11-24T14:33:00;10.10;99.90
38726;DHT22;24474;48.906;8.808;2022-11-24T14:35:33;10.10;99.90
38726;DHT22;24474;48.906;8.808;2022-11-24T14:38:02;10.10;99.90
38726;DHT22;24474;48.906;8.808;2022-11-24T14:40:39;10.00;99.90
38726;DHT22;24474;48.906;8.808;2022-11-24T14:45:56;10.10;99.90
38726;DHT22;24474;48.906;8.808;2022-11-24T14:48:28;10.10;99.90
38726;DHT22;24474;48.906;8.808;2022-11-24T14:54:17;10.10;99.90
38726;DHT22;24474;48.906;8.808;2022-11-24T14:57:01;10.00;99.90
38726;DHT22;24474;48.906;8.808;2022-11-24T14:59:34;10.00;99.90
38726;DHT22;24474;48.906;8.808;2022-11-24T15:02:33;9.90;99.90
38726;DHT22;24474;48.906;8.808;2022-11-24T15:04:59;9.90;99.90
38726;DHT22;24474;48.906;8.808;2022-11-24T15:07:26;9.70;99.90
38726;DHT22;24474;48.906;8.808;2022-11-24T15:10:00;9.70;99.90
38726;DHT22;24474;48.906;8.808;2022-11-24T15:12:41;9.70;99.90
38726;DHT22;24474;48.906;8.808;2022-11-24T15:17:56;9.60;99.90
38726;DHT22;24474;48.906;8.808;2022-11-24T15:20:43;9.50;99.90
38726;DHT22;24474;48.906;8.808;2022-11-24T15:23:36;9.50;99.90
38726;DHT22;24474;48.906;8.808;2022-11-24T15:28:30;9.40;99.90
38726;DHT22;24474;48.906;8.808;2022-11-24T15:31:02;9.30;99.90
38726;DHT22;24474;48.906;8.808;2022-11-24T15:33:40;9.20;99.90
38726;DHT22;24474;48.906;8.808;2022-11-24T15:36:14;9.30;99.90
38726;DHT22;24474;48.906;8.808;2022-11-24T15:38:42;9.10;99.90
38726;DHT22;24474;48.906;8.808;2022-11-24T15:41:19;9.10;99.90
38726;DHT22;24474;48.906;8.808;2022-11-24T15:43:46;9.10;99.90
38726;DHT22;24474;48.906;8.808;2022-11-24T15:46:12;9.00;99.90
38726;DHT22;24474;48.906;8.808;2022-11-24T15:48:38;9.00;99.90
38726;DHT22;24474;48.906;8.808;2022-11-24T15:51:11;8.90;99.90
38726;DHT22;24474;48.906;8.808;2022-11-24T15:53:44;8.80;99.90
38726;DHT22;24474;48.906;8.808;2022-11-24T15:56:32;8.80;99.90
38726;DHT22;24474;48.906;8.808;2022-11-24T15:59:00;8.70;99.90
38726;DHT22;24474;48.906;8.808;2022-11-24T16:01:31;8.60;99.90
38726;DHT22;24474;48.906;8.808;2022-11-24T16:03:57;8.60;99.90
38726;DHT22;24474;48.906;8.808;2022-11-24T16:06:24;8.50;99.90
38726;DHT22;24474;48.906;8.808;2022-11-24T16:08:49;8.40;99.90
38726;DHT22;24474;48.906;8.808;2022-11-24T16:11:17;8.40;99.90
38726;DHT22;24474;48.906;8.808;2022-11-24T16:13:43;8.30;99.90
38726;DHT22;24474;48.906;8.808;2022-11-24T16:16:09;8.30;99.90
38726;DHT22;24474;48.906;8.808;2022-11-24T16:18:37;8.20;99.90
38726;DHT22;24474;48.906;8.808;2022-11-24T16:21:05;8.20;99.90
38726;DHT22;24474;48.906;8.808;2022-11-24T16:23:33;8.10;99.90
38726;DHT22;24474;48.906;8.808;2022-11-24T16:26:06;8.10;99.90
38726;DHT22;24474;48.906;8.808;2022-11-24T16:28:31;8.10;99.90
38726;DHT22;24474;48.906;8.808;2022-11-24T16:30:58;7.90;99.90
38726;DHT22;24474;48.906;8.808;2022-11-24T16:33:24;7.90;99.90
38726;DHT22;24474;48.906;8.808;2022-11-24T16:35:51;7.90;99.90
38726;DHT22;24474;48.906;8.808;2022-11-24T16:38:18;7.80;99.90
38726;DHT22;24474;48.906;8.808;2022-11-24T16:40:57;7.70;99.90
38726;DHT22;24474;48.906;8.808;2022-11-24T16:43:24;7.70;99.90
38726;DHT22;24474;48.906;8.808;2022-11-24T16:48:46;7.60;99.90
38726;DHT22;24474;48.906;8.808;2022-11-24T16:51:14;7.60;99.90
38726;DHT22;24474;48.906;8.808;2022-11-24T16:53:41;7.50;99.90
38726;DHT22;24474;48.906;8.808;2022-11-24T16:56:11;7.50;99.90
38726;DHT22;24474;48.906;8.808;2022-11-24T16:58:39;7.50;99.90
38726;DHT22;24474;48.906;8.808;2022-11-24T17:01:12;7.50;99.90
38726;DHT22;24474;48.906;8.808;2022-11-24T17:03:40;7.40;99.90
38726;DHT22;24474;48.906;8.808;2022-11-24T17:06:11;7.40;99.90
38726;DHT22;24474;48.906;8.808;2022-11-24T17:08:44;7.30;99.90
38726;DHT22;24474;48.906;8.808;2022-11-24T17:11:20;7.30;99.90
38726;DHT22;24474;48.906;8.808;2022-11-24T17:13:48;7.20;99.90
38726;DHT22;24474;48.906;8.808;2022-11-24T17:16:16;7.20;99.90
38726;DHT22;24474;48.906;8.808;2022-11-24T17:18:42;7.20;99.90
38726;DHT22;24474;48.906;8.808;2022-11-24T17:21:13;7.10;99.90
38726;DHT22;24474;48.906;8.808;2022-11-24T17:23:39;7.10;99.90
38726;DHT22;24474;48.906;8.808;2022-11-24T17:26:11;7.10;99.90
38726;DHT22;24474;48.906;8.808;2022-11-24T17:28:38;7.00;99.90
38726;DHT22;24474;48.906;8.808;2022-11-24T17:31:07;6.90;99.90
38726;DHT22;24474;48.906;8.808;2022-11-24T17:33:34;6.90;99.90
38726;DHT22;24474;48.906;8.808;2022-11-24T17:36:02;6.90;99.90
38726;DHT22;24474;48.906;8.808;2022-11-24T17:38:29;6.80;99.90
38726;DHT22;24474;48.906;8.808;2022-11-24T17:40:59;6.80;99.90
38726;DHT22;24474;48.906;8.808;2022-11-24T17:43:25;6.80;99.90
38726;DHT22;24474;48.906;8.808;2022-11-24T17:45:56;6.80;99.90
38726;DHT22;24474;48.906;8.808;2022-11-24T17:48:26;6.80;99.90
38726;DHT22;24474;48.906;8.808;2022-11-24T17:51:25;6.70;99.90
38726;DHT22;24474;48.906;8.808;2022-11-24T17:53:53;6.70;99.90
38726;DHT22;24474;48.906;8.808;2022-11-24T17:56:22;6.60;99.90
38726;DHT22;24474;48.906;8.808;2022-11-24T17:58:57;6.60;99.90
38726;DHT22;24474;48.906;8.808;2022-11-24T18:01:23;6.60;99.90